createdAt,value
2018-04-26T00:01:20.258Z,99400.70
2018-04-26T00:06:22.870Z,99409.64
2018-04-26T00:08:50.847Z,99419.70
2018-04-26T00:11:19.658Z,99416.09
2018-04-26T00:13:47.778Z,99413.70
2018-04-26T00:16:15.564Z,99409.32
2018-04-26T00:18:43.388Z,99414.48
2018-04-26T00:21:11.619Z,99416.27
2018-04-26T00:23:39.514Z,99417.23
2018-04-26T00:26:07.562Z,99418.16
2018-04-26T00:28:35.684Z,99417.38
2018-04-26T00:31:03.836Z,99415.70
2018-04-26T00:33:31.779Z,99420.13
2018-04-26T00:35:59.487Z,99420.97
2018-04-26T00:38:28.616Z,99425.00
2018-04-26T00:40:56.658Z,99422.76
2018-04-26T00:43:24.689Z,99426.22
2018-04-26T00:45:52.572Z,99421.80
2018-04-26T00:48:20.570Z,99422.55
2018-04-26T00:50:48.362Z,99419.77
2018-04-26T00:53:16.362Z,99419.66
2018-04-26T00:55:44.553Z,99416.91
2018-04-26T00:58:12.453Z,99414.17
2018-04-26T01:00:40.523Z,99413.17
2018-04-26T01:03:08.305Z,99419.02
2018-04-26T01:05:36.085Z,99415.98
2018-04-26T01:08:04.552Z,99417.38
2018-04-26T01:10:32.937Z,99411.48
2018-04-26T01:13:01.671Z,99419.11
2018-04-26T01:15:29.699Z,99419.39
2018-04-26T01:17:57.590Z,99411.75
2018-04-26T01:20:26.279Z,99420.27
2018-04-26T01:22:54.451Z,99421.52
2018-04-26T01:25:23.133Z,99419.77
2018-04-26T01:27:51.015Z,99426.44
2018-04-26T01:30:19.087Z,99435.41
2018-04-26T01:32:47.370Z,99444.83
2018-04-26T01:35:15.244Z,99457.82
2018-04-26T01:37:49.248Z,99453.58
2018-04-26T01:40:17.337Z,99448.36
2018-04-26T01:42:45.110Z,99448.33
2018-04-26T01:45:13.257Z,99446.19
2018-04-26T01:47:41.170Z,99451.58
2018-04-26T01:50:10.379Z,99440.62
2018-04-26T01:52:40.602Z,99448.77
2018-04-26T01:55:09.583Z,99448.09
2018-04-26T01:57:37.714Z,99446.09
2018-04-26T02:00:06.527Z,99447.05
2018-04-26T02:02:34.416Z,99441.41
2018-04-26T02:05:02.484Z,99448.83
2018-04-26T02:07:30.360Z,99446.05
2018-04-26T02:09:58.626Z,99440.34
2018-04-26T02:12:26.499Z,99442.38
2018-04-26T02:14:54.297Z,99441.23
2018-04-26T02:17:22.350Z,99441.98
2018-04-26T02:19:50.344Z,99447.19
2018-04-26T02:22:18.295Z,99439.73
2018-04-26T02:24:46.274Z,99441.09
2018-04-26T02:27:14.143Z,99450.86
2018-04-26T02:29:42.103Z,99448.73
2018-04-26T02:32:10.062Z,99448.87
2018-04-26T02:34:39.414Z,99457.39
2018-04-26T02:37:08.098Z,99452.69
2018-04-26T02:39:37.429Z,99450.97
2018-04-26T02:42:05.561Z,99462.38
2018-04-26T02:44:33.356Z,99468.05
2018-04-26T02:47:01.620Z,99458.75
2018-04-26T02:49:29.489Z,99444.95
2018-04-26T02:51:57.463Z,99439.09
2018-04-26T02:54:25.421Z,99426.61
2018-04-26T02:56:53.332Z,99430.50
2018-04-26T02:59:21.583Z,99439.23
2018-04-26T03:01:49.484Z,99441.77
2018-04-26T03:04:17.498Z,99450.08
2018-04-26T03:06:45.363Z,99450.66
2018-04-26T03:09:13.197Z,99445.91
2018-04-26T03:11:41.444Z,99444.20
2018-04-26T03:14:09.247Z,99441.59
2018-04-26T03:16:37.180Z,99446.52
2018-04-26T03:19:05.072Z,99449.66
2018-04-26T03:21:32.841Z,99448.77
2018-04-26T03:24:01.213Z,99448.30
2018-04-26T03:26:30.069Z,99445.70
2018-04-26T03:28:59.062Z,99443.91
2018-04-26T03:31:26.907Z,99444.84
2018-04-26T03:33:54.655Z,99438.31
2018-04-26T03:36:23.533Z,99433.89
2018-04-26T03:38:51.717Z,99438.31
2018-04-26T03:41:19.608Z,99442.23
2018-04-26T03:43:47.576Z,99435.17
2018-04-26T03:46:16.076Z,99432.46
2018-04-26T03:48:44.189Z,99421.94
2018-04-26T03:51:12.119Z,99427.58
2018-04-26T03:53:40.769Z,99435.88
2018-04-26T03:56:08.732Z,99438.41
2018-04-26T03:58:36.731Z,99436.13
2018-04-26T04:01:17.493Z,99443.02
2018-04-26T04:03:58.273Z,99441.98
2018-04-26T04:06:26.232Z,99435.27
2018-04-26T04:08:54.186Z,99440.02
2018-04-26T04:11:22.276Z,99445.15
2018-04-26T04:13:50.434Z,99445.89
2018-04-26T04:16:18.336Z,99444.03
2018-04-26T04:18:46.618Z,99448.34
2018-04-26T04:21:14.413Z,99450.06
2018-04-26T04:23:42.558Z,99452.45
2018-04-26T04:26:10.404Z,99453.73
2018-04-26T04:28:38.362Z,99451.55
2018-04-26T04:31:06.472Z,99459.36
2018-04-26T04:33:34.493Z,99462.39
2018-04-26T04:36:02.533Z,99468.06
2018-04-26T04:38:30.512Z,99470.14
2018-04-26T04:40:58.486Z,99470.48
2018-04-26T04:43:26.569Z,99479.34
2018-04-26T04:45:54.438Z,99477.98
2018-04-26T04:48:22.570Z,99478.80
2018-04-26T04:50:50.593Z,99470.77
2018-04-26T04:53:18.540Z,99482.01
2018-04-26T04:55:46.845Z,99484.86
2018-04-26T04:58:14.912Z,99488.13
2018-04-26T05:00:42.923Z,99479.41
2018-04-26T05:03:10.756Z,99479.45
2018-04-26T05:05:38.831Z,99479.52
2018-04-26T05:08:07.426Z,99491.84
2018-04-26T05:10:35.489Z,99490.95
2018-04-26T05:13:03.566Z,99474.75
2018-04-26T05:15:31.727Z,99474.91
2018-04-26T05:17:59.419Z,99482.06
2018-04-26T05:20:27.593Z,99483.42
2018-04-26T05:22:55.504Z,99488.98
2018-04-26T05:25:23.946Z,99490.50
2018-04-26T05:27:51.942Z,99489.61
2018-04-26T05:30:20.314Z,99486.77
2018-04-26T05:32:48.090Z,99484.59
2018-04-26T05:35:16.556Z,99477.94
2018-04-26T05:37:44.663Z,99477.97
2018-04-26T05:40:13.545Z,99479.45
2018-04-26T05:42:41.508Z,99481.98
2018-04-26T05:45:09.438Z,99481.13
2018-04-26T05:47:37.237Z,99484.89
2018-04-26T05:50:05.128Z,99480.42
2018-04-26T05:52:33.228Z,99478.78
2018-04-26T05:55:01.258Z,99485.05
2018-04-26T05:57:29.322Z,99477.73
2018-04-26T05:59:57.012Z,99467.92
2018-04-26T06:02:25.195Z,99472.46
2018-04-26T06:04:53.304Z,99470.24
2018-04-26T06:07:22.043Z,99476.86
2018-04-26T06:09:49.986Z,99480.23
2018-04-26T06:12:18.205Z,99475.79
2018-04-26T06:14:46.598Z,99479.00
2018-04-26T06:17:14.731Z,99473.85
2018-04-26T06:19:42.647Z,99480.02
2018-04-26T06:22:11.560Z,99480.97
2018-04-26T06:24:40.761Z,99485.89
2018-04-26T06:27:08.714Z,99481.80
2018-04-26T06:29:37.622Z,99478.66
2018-04-26T06:32:06.415Z,99485.17
2018-04-26T06:34:34.489Z,99490.81
2018-04-26T06:37:02.636Z,99504.19
2018-04-26T06:39:30.694Z,99497.85
2018-04-26T06:41:59.128Z,99499.28
2018-04-26T06:44:27.357Z,99499.66
2018-04-26T06:46:55.165Z,99492.86
2018-04-26T06:49:23.011Z,99493.03
2018-04-26T06:51:51.721Z,99487.48
2018-04-26T06:54:20.091Z,99485.41
2018-04-26T06:56:48.188Z,99478.35
2018-04-26T06:59:16.210Z,99479.38
2018-04-26T07:01:43.994Z,99474.51
2018-04-26T07:04:11.893Z,99468.16
2018-04-26T07:06:39.974Z,99476.13
2018-04-26T07:09:07.955Z,99474.51
2018-04-26T07:11:36.387Z,99479.50
2018-04-26T07:14:04.115Z,99477.20
2018-04-26T07:16:31.775Z,99479.16
2018-04-26T07:19:00.249Z,99470.69
2018-04-26T07:21:28.148Z,99461.22
2018-04-26T07:23:56.087Z,99466.48
2018-04-26T07:26:24.949Z,99458.42
2018-04-26T07:28:53.521Z,99461.64
2018-04-26T07:31:21.651Z,99463.06
2018-04-26T07:34:01.752Z,99466.10
2018-04-26T12:51:31.521Z,99415.47
2018-04-26T12:54:00.121Z,99401.44
2018-04-26T12:56:28.282Z,99420.63
2018-04-26T12:58:57.468Z,99429.55
2018-04-26T13:01:26.061Z,99441.34
2018-04-26T13:03:54.806Z,99477.41
2018-04-26T13:06:23.438Z,99448.61
2018-04-26T13:08:52.222Z,99452.26
2018-04-26T13:11:21.569Z,99457.25
2018-04-26T13:13:50.565Z,99453.18
2018-04-26T13:16:19.165Z,99433.91
2018-04-26T13:18:47.508Z,99436.70
2018-04-26T13:21:15.782Z,99436.72
2018-04-26T13:23:43.991Z,99437.87
2018-04-26T13:26:12.149Z,99427.84
2018-04-26T13:28:40.471Z,99442.38
2018-04-26T13:31:08.701Z,99445.59
2018-04-26T13:33:36.920Z,99432.43
2018-04-26T13:36:05.491Z,99466.06
2018-04-26T13:38:33.642Z,99424.05
2018-04-26T13:41:01.604Z,99427.14
2018-04-26T13:43:29.585Z,99424.80
2018-04-26T13:45:57.665Z,99429.79
2018-04-26T13:48:25.898Z,99434.27
2018-04-26T13:50:54.323Z,99423.19
2018-04-26T13:53:22.919Z,99432.05
2018-04-26T13:55:51.428Z,99438.18
2018-04-26T13:58:20.037Z,99463.77
2018-04-26T14:00:48.647Z,99471.07
2018-04-26T14:03:17.064Z,99475.95
2018-04-26T14:05:45.348Z,99485.69
2018-04-26T14:08:13.833Z,99474.22
2018-04-26T14:10:42.533Z,99485.14
2018-04-26T14:13:10.685Z,99491.24
2018-04-26T14:15:38.863Z,99506.11
2018-04-26T14:18:07.056Z,99522.05
2018-04-26T14:20:35.237Z,99540.58
2018-04-26T14:23:03.714Z,99528.03
2018-04-26T14:25:32.016Z,99534.55
2018-04-26T14:28:00.185Z,99549.44
2018-04-26T14:30:28.190Z,99544.34
2018-04-26T14:32:56.538Z,99541.36
2018-04-26T14:35:25.608Z,99547.02
2018-04-26T14:37:54.434Z,99547.00
2018-04-26T14:40:23.013Z,99537.44
2018-04-26T14:42:51.226Z,99536.27
2018-04-26T14:45:19.225Z,99538.30
2018-04-26T14:47:48.225Z,99535.66
2018-04-26T14:50:17.159Z,99530.38
2018-04-26T14:52:45.175Z,99532.50
2018-04-26T14:55:13.879Z,99538.05
2018-04-26T14:57:42.559Z,99528.52
2018-04-26T15:00:11.398Z,99525.16
2018-04-26T15:02:41.799Z,99526.42
2018-04-26T15:05:10.592Z,99520.53
2018-04-26T15:07:39.792Z,99530.12
2018-04-26T15:10:08.083Z,99518.41
2018-04-26T15:12:36.032Z,99509.16
2018-04-26T15:15:04.303Z,99521.54
2018-04-26T15:17:32.556Z,99540.41
2018-04-26T15:20:01.026Z,99501.67
2018-04-26T15:22:29.834Z,99536.58
2018-04-26T15:24:58.918Z,99524.09
2018-04-26T15:27:26.963Z,99539.02
2018-04-26T15:29:55.501Z,99523.11
2018-04-26T15:32:23.862Z,99535.44
2018-04-26T15:34:53.027Z,99546.47
2018-04-26T15:37:21.851Z,99542.28
2018-04-26T15:39:50.195Z,99554.59
2018-04-26T15:42:18.752Z,99550.87
2018-04-26T15:44:46.764Z,99549.56
2018-04-26T15:47:15.341Z,99553.34
2018-04-26T15:49:43.753Z,99556.26
2018-04-26T15:52:12.572Z,99561.70
2018-04-26T15:58:05.630Z,99562.59
2018-04-26T16:00:53.231Z,99570.75
2018-04-26T16:03:34.015Z,99584.88
2018-04-26T16:09:14.907Z,99592.70
2018-04-26T16:11:55.533Z,99596.34
2018-04-26T16:14:36.606Z,99583.70
2018-04-26T16:17:32.717Z,99581.69
2018-04-26T16:20:18.287Z,99576.33
2018-04-26T16:26:15.567Z,99589.28
2018-04-26T16:32:16.378Z,99589.27
2018-04-26T16:34:56.822Z,99589.02
2018-04-26T16:37:43.323Z,99597.08
2018-04-26T16:40:11.953Z,99596.64
2018-04-26T16:42:40.498Z,99612.02
2018-04-26T16:45:09.297Z,99600.41
2018-04-26T16:47:38.080Z,99609.06
2018-04-26T16:50:06.583Z,99606.36
2018-04-26T16:52:35.080Z,99608.72
2018-04-26T16:55:03.680Z,99611.69
2018-04-26T16:57:32.229Z,99616.22
2018-04-26T17:00:00.424Z,99627.69
2018-04-26T17:02:28.878Z,99621.59
2018-04-26T17:04:57.582Z,99635.55
2018-04-26T17:07:25.962Z,99637.86
2018-04-26T17:09:54.356Z,99633.63
2018-04-26T17:12:23.219Z,99629.12
2018-04-26T17:14:52.023Z,99637.53
2018-04-26T17:17:21.802Z,99641.84
2018-04-26T17:19:50.265Z,99641.30
2018-04-26T17:22:18.868Z,99650.68
2018-04-26T17:24:47.505Z,99642.45
2018-04-26T17:27:16.301Z,99640.16
2018-04-26T17:29:44.889Z,99648.59
2018-04-26T17:32:13.300Z,99649.68
2018-04-26T17:34:41.834Z,99649.99
2018-04-26T17:37:10.479Z,99650.50
2018-04-26T17:39:39.244Z,99652.50
2018-04-26T17:42:07.935Z,99651.80
2018-04-26T17:44:36.225Z,99661.70
2018-04-26T17:47:04.833Z,99656.93
2018-04-26T17:49:33.366Z,99665.14
2018-04-26T17:52:02.274Z,99676.03
2018-04-26T17:54:30.766Z,99677.21
2018-04-26T17:56:59.265Z,99681.00
2018-04-26T17:59:27.955Z,99686.09
2018-04-26T18:01:56.799Z,99689.83
2018-04-26T18:04:25.421Z,99688.72
2018-04-26T18:06:54.219Z,99702.16
2018-04-26T18:09:23.004Z,99714.70
2018-04-26T18:11:51.790Z,117366.75
2018-04-26T18:14:20.333Z,117366.75
2018-04-26T18:16:49.163Z,117366.75
2018-04-26T18:19:17.696Z,117366.75
2018-04-26T18:21:46.515Z,117366.75
2018-04-26T18:24:15.385Z,117366.75
2018-04-26T18:26:44.136Z,117366.75
2018-04-26T18:29:13.178Z,117366.75
2018-04-26T18:31:42.407Z,117366.75
2018-04-26T18:34:11.068Z,117366.75
2018-04-26T18:36:39.624Z,117366.75
2018-04-26T18:39:08.607Z,117366.75
2018-04-26T18:41:37.408Z,117366.75
2018-04-26T18:44:06.418Z,117366.75
2018-04-26T18:46:34.583Z,117366.75
2018-04-26T18:49:03.207Z,117366.75
2018-04-26T18:51:31.839Z,117366.75
2018-04-26T18:54:00.445Z,117366.75
2018-04-26T18:56:28.798Z,117366.75
2018-04-26T18:58:57.345Z,117366.75
2018-04-26T19:01:26.949Z,117366.75
2018-04-26T19:03:55.410Z,117366.75
2018-04-26T19:08:22.993Z,99807.11
2018-04-26T19:10:51.535Z,99803.51
2018-04-26T19:13:20.533Z,99800.27
2018-04-26T19:15:49.210Z,99811.03
2018-04-26T19:18:17.988Z,99819.61
2018-04-26T19:20:46.412Z,99832.90
2018-04-26T19:23:14.865Z,99852.64
2018-04-26T19:25:43.688Z,99866.06
2018-04-26T19:28:12.387Z,99864.93
2018-04-26T19:30:41.135Z,99873.30
2018-04-26T19:33:09.604Z,99873.73
2018-04-26T19:35:38.231Z,99862.83
2018-04-26T19:38:07.099Z,99843.13
2018-04-26T19:40:35.905Z,99845.14
2018-04-26T19:43:04.703Z,99842.85
2018-04-26T19:45:33.584Z,99843.11
2018-04-26T19:48:02.145Z,99844.72
2018-04-26T19:50:30.847Z,99840.33
2018-04-26T19:52:59.488Z,99840.36
2018-04-26T19:55:28.136Z,99835.98
2018-04-26T19:57:56.549Z,99839.50
2018-04-26T20:00:25.378Z,99838.64
2018-04-26T20:02:54.081Z,99836.69
2018-04-26T20:05:23.169Z,99840.16
2018-04-26T20:07:51.965Z,99838.88
2018-04-26T20:10:20.424Z,99839.30
2018-04-26T20:12:48.911Z,99844.03
2018-04-26T20:15:17.251Z,99847.16
2018-04-26T20:17:46.147Z,99841.42
2018-04-26T20:20:14.905Z,99840.05
2018-04-26T20:22:43.705Z,99846.09
2018-04-26T20:25:12.146Z,99856.30
2018-04-26T20:27:40.487Z,99855.95
2018-04-26T20:30:09.498Z,99846.53
2018-04-26T20:32:38.750Z,99853.72
2018-04-26T20:35:07.402Z,99850.97
2018-04-26T20:37:44.203Z,99844.67
2018-04-26T20:40:16.912Z,99849.80
2018-04-26T20:42:45.243Z,99853.69
2018-04-26T20:45:13.723Z,99851.30
2018-04-26T20:47:42.075Z,99850.26
2018-04-26T20:50:11.063Z,99861.96
2018-04-26T20:52:39.852Z,99859.30
2018-04-26T20:55:08.745Z,99864.52
2018-04-26T20:57:37.056Z,99854.59
2018-04-26T21:00:05.856Z,99858.14
2018-04-26T21:02:34.337Z,99858.30
2018-04-26T21:05:03.132Z,99864.08
2018-04-26T21:07:31.791Z,99864.20
2018-04-26T21:10:00.681Z,99867.55
2018-04-26T21:12:28.961Z,99871.34
2018-04-26T21:14:57.270Z,99869.27
2018-04-26T21:17:25.931Z,99872.31
2018-04-26T21:19:53.922Z,99871.02
2018-04-26T21:22:22.386Z,99874.23
2018-04-26T21:24:51.287Z,99879.52
2018-04-26T21:27:19.777Z,99876.19
2018-04-26T21:29:47.977Z,99887.41
2018-04-26T21:32:16.126Z,99883.05
2018-04-26T21:34:44.237Z,99886.02
2018-04-26T21:37:12.687Z,99887.63
2018-04-26T21:39:40.672Z,99896.17
2018-04-26T21:42:08.846Z,99894.08
2018-04-26T21:44:37.118Z,99907.80
2018-04-26T21:47:05.292Z,99904.02
2018-04-26T21:49:32.980Z,99905.06
2018-04-26T21:52:06.616Z,99916.45
2018-04-26T21:54:40.387Z,99913.86
2018-04-26T21:57:14.585Z,99908.56
2018-04-26T21:59:48.251Z,99915.07
2018-04-26T22:02:22.285Z,99924.98
2018-04-26T22:04:56.094Z,99927.11
2018-04-26T22:07:24.599Z,99930.58
2018-04-26T22:09:52.703Z,99938.42
2018-04-26T22:12:20.853Z,99942.27
2018-04-26T22:14:48.759Z,99943.44
2018-04-26T22:17:17.061Z,99940.16
2018-04-26T22:19:45.093Z,99941.64
2018-04-26T22:22:13.214Z,99951.40
2018-04-26T22:24:41.124Z,99946.30
2018-04-26T22:27:09.269Z,99944.67
2018-04-26T22:29:37.279Z,99947.82
2018-04-26T22:32:05.527Z,99947.31
2018-04-26T22:34:32.768Z,99951.66
